sensor_id;sensor_type;location;lat;lon;timestamp;pressure;altitude;pressure_sealevel;temperature;humidity
11001;BME280;5553;48.506;8.870;2023-02-21T00:01:37;96943.63;;;2.30;100.00
11001;BME280;5553;48.506;8.870;2023-02-21T00:04:17;96934.94;;;2.20;100.00
11001;BME280;5553;48.506;8.870;2023-02-21T00:07:01;96939.97;;;2.12;100.00
11001;BME280;5553;48.506;8.870;2023-02-21T00:09:42;96934.47;;;2.05;100.00
11001;BME280;5553;48.506;8.870;2023-02-21T00:12:23;96940.03;;;2.01;100.00
11001;BME280;5553;48.506;8.870;2023-02-21T00:15:05;96944.16;;;1.82;100.00
11001;BME280;5553;48.506;8.870;2023-02-21T00:17:46;96948.16;;;1.65;100.00
11001;BME280;5553;48.506;8.870;2023-02-21T00:20:26;96947.88;;;1.36;100.00
11001;BME280;5553;48.506;8.870;2023-02-21T00:23:10;96952.19;;;1.26;100.00
11001;BME280;5553;48.506;8.870;2023-02-21T00:29:11;96949.56;;;1.37;100.00
11001;BME280;5553;48.506;8.870;2023-02-21T00:31:52;96942.16;;;1.54;100.00
11001;BME280;5553;48.506;8.870;2023-02-21T00:34:33;96942.38;;;1.62;100.00
11001;BME280;5553;48.506;8.870;2023-02-21T00:37:14;96943.75;;;1.66;100.00
11001;BME280;5553;48.506;8.870;2023-02-21T00:39:57;96941.63;;;1.71;100.00
11001;BME280;5553;48.506;8.870;2023-02-21T00:42:38;96935.63;;;1.59;100.00
11001;BME280;5553;48.506;8.870;2023-02-21T00:45:18;96940.44;;;1.64;100.00
11001;BME280;5553;48.506;8.870;2023-02-21T00:47:59;96940.00;;;1.59;100.00
11001;BME280;5553;48.506;8.870;2023-02-21T00:50:40;96939.78;;;1.62;100.00
11001;BME280;5553;48.506;8.870;2023-02-21T00:53:23;96941.66;;;1.60;100.00
11001;BME280;5553;48.506;8.870;2023-02-21T00:56:07;96940.75;;;1.50;100.00
11001;BME280;5553;48.506;8.870;2023-02-21T00:58:47;96939.50;;;1.44;100.00
11001;BME280;5553;48.506;8.870;2023-02-21T01:01:28;96942.97;;;1.22;100.00
11001;BME280;5553;48.506;8.870;2023-02-21T01:04:09;96936.69;;;0.92;100.00
11001;BME280;5553;48.506;8.870;2023-02-21T01:06:50;96938.59;;;1.23;100.00
11001;BME280;5553;48.506;8.870;2023-02-21T01:09:31;96941.13;;;1.13;100.00
11001;BME280;5553;48.506;8.870;2023-02-21T01:12:14;96940.53;;;1.09;100.00
11001;BME280;5553;48.506;8.870;2023-02-21T01:14:56;96925.19;;;1.06;100.00
11001;BME280;5553;48.506;8.870;2023-02-21T01:17:37;96932.75;;;0.98;100.00
11001;BME280;5553;48.506;8.870;2023-02-21T01:20:18;96935.47;;;1.08;100.00
11001;BME280;5553;48.506;8.870;2023-02-21T01:22:58;96926.19;;;1.26;100.00
11001;BME280;5553;48.506;8.870;2023-02-21T01:25:39;96930.31;;;1.29;100.00
11001;BME280;5553;48.506;8.870;2023-02-21T01:28:22;96926.50;;;1.33;100.00
11001;BME280;5553;48.506;8.870;2023-02-21T01:31:03;96924.19;;;1.18;100.00
11001;BME280;5553;48.506;8.870;2023-02-21T01:33:44;96930.06;;;1.00;100.00
11001;BME280;5553;48.506;8.870;2023-02-21T01:36:26;96930.44;;;0.84;100.00
11001;BME280;5553;48.506;8.870;2023-02-21T01:39:07;96937.88;;;0.77;100.00
11001;BME280;5553;48.506;8.870;2023-02-21T01:41:47;96934.31;;;0.78;100.00
11001;BME280;5553;48.506;8.870;2023-02-21T01:44:36;96943.06;;;0.77;100.00
11001;BME280;5553;48.506;8.870;2023-02-21T01:47:18;96934.13;;;0.70;100.00
11001;BME280;5553;48.506;8.870;2023-02-21T01:50:02;96936.69;;;0.81;100.00
11001;BME280;5553;48.506;8.870;2023-02-21T01:52:43;96926.53;;;0.89;100.00
11001;BME280;5553;48.506;8.870;2023-02-21T01:55:25;96923.34;;;0.86;100.00
11001;BME280;5553;48.506;8.870;2023-02-21T01:58:05;96919.94;;;0.74;100.00
11001;BME280;5553;48.506;8.870;2023-02-21T02:00:49;96918.31;;;0.51;100.00
11001;BME280;5553;48.506;8.870;2023-02-21T02:03:30;96910.84;;;0.57;100.00
11001;BME280;5553;48.506;8.870;2023-02-21T02:06:15;96917.84;;;0.57;100.00
11001;BME280;5553;48.506;8.870;2023-02-21T02:08:56;96921.97;;;0.48;100.00
11001;BME280;5553;48.506;8.870;2023-02-21T02:12:00;96921.97;;;0.37;100.00
11001;BME280;5553;48.506;8.870;2023-02-21T02:18:03;96918.88;;;0.20;100.00
11001;BME280;5553;48.506;8.870;2023-02-21T02:21:01;96919.50;;;0.35;100.00
11001;BME280;5553;48.506;8.870;2023-02-21T02:23:51;96922.91;;;0.47;100.00
11001;BME280;5553;48.506;8.870;2023-02-21T02:32:57;96917.00;;;0.34;100.00
11001;BME280;5553;48.506;8.870;2023-02-21T02:35:38;96921.38;;;0.33;100.00
11001;BME280;5553;48.506;8.870;2023-02-21T02:38:13;96915.59;;;0.41;100.00
11001;BME280;5553;48.506;8.870;2023-02-21T02:40:49;96912.66;;;0.34;100.00
11001;BME280;5553;48.506;8.870;2023-02-21T02:43:21;96911.13;;;0.32;100.00
11001;BME280;5553;48.506;8.870;2023-02-21T02:45:55;96908.84;;;-0.07;100.00
11001;BME280;5553;48.506;8.870;2023-02-21T02:48:28;96907.03;;;-0.17;100.00
11001;BME280;5553;48.506;8.870;2023-02-21T02:51:02;96903.03;;;-0.33;100.00
11001;BME280;5553;48.506;8.870;2023-02-21T02:53:33;96908.22;;;-0.33;100.00
11001;BME280;5553;48.506;8.870;2023-02-21T02:56:04;96906.81;;;-0.26;100.00
11001;BME280;5553;48.506;8.870;2023-02-21T02:58:37;96919.91;;;-0.16;100.00
11001;BME280;5553;48.506;8.870;2023-02-21T03:01:23;96912.66;;;0.01;100.00
11001;BME280;5553;48.506;8.870;2023-02-21T03:04:10;96909.56;;;-0.05;100.00
11001;BME280;5553;48.506;8.870;2023-02-21T03:06:53;96911.22;;;0.08;100.00
11001;BME280;5553;48.506;8.870;2023-02-21T03:09:28;96912.59;;;-0.11;100.00
11001;BME280;5553;48.506;8.870;2023-02-21T03:12:04;96905.41;;;-0.18;100.00
11001;BME280;5553;48.506;8.870;2023-02-21T03:14:42;96907.41;;;-0.22;100.00
11001;BME280;5553;48.506;8.870;2023-02-21T03:17:15;96902.34;;;-0.23;100.00
11001;BME280;5553;48.506;8.870;2023-02-21T03:19:46;96903.41;;;-0.26;100.00
11001;BME280;5553;48.506;8.870;2023-02-21T03:22:21;96901.03;;;-0.29;100.00
11001;BME280;5553;48.506;8.870;2023-02-21T03:24:51;96903.22;;;-0.47;100.00
11001;BME280;5553;48.506;8.870;2023-02-21T03:27:22;96899.91;;;-0.49;100.00
11001;BME280;5553;48.506;8.870;2023-02-21T03:36:13;96902.66;;;-0.75;100.00
11001;BME280;5553;48.506;8.870;2023-02-21T03:38:44;96902.06;;;-0.78;100.00
11001;BME280;5553;48.506;8.870;2023-02-21T03:41:14;96896.56;;;-0.62;100.00
11001;BME280;5553;48.506;8.870;2023-02-21T03:43:42;96903.50;;;-0.63;100.00
11001;BME280;5553;48.506;8.870;2023-02-21T03:46:10;96900.91;;;-0.63;100.00
11001;BME280;5553;48.506;8.870;2023-02-21T03:48:38;96907.47;;;-0.46;100.00
11001;BME280;5553;48.506;8.870;2023-02-21T03:51:07;96909.00;;;-0.43;100.00
11001;BME280;5553;48.506;8.870;2023-02-21T03:53:35;96905.03;;;-0.25;100.00
11001;BME280;5553;48.506;8.870;2023-02-21T03:56:06;96901.25;;;-0.21;100.00
11001;BME280;5553;48.506;8.870;2023-02-21T03:58:35;96890.31;;;-0.95;100.00
11001;BME280;5553;48.506;8.870;2023-02-21T04:01:03;96895.97;;;-0.66;100.00
11001;BME280;5553;48.506;8.870;2023-02-21T04:03:32;96894.50;;;-0.35;100.00
11001;BME280;5553;48.506;8.870;2023-02-21T04:06:00;96888.34;;;-0.10;100.00
11001;BME280;5553;48.506;8.870;2023-02-21T04:08:28;96891.63;;;-0.08;100.00
11001;BME280;5553;48.506;8.870;2023-02-21T04:10:56;96895.41;;;-0.12;100.00
11001;BME280;5553;48.506;8.870;2023-02-21T04:13:27;96893.31;;;0.05;100.00
11001;BME280;5553;48.506;8.870;2023-02-21T04:15:55;96885.59;;;-0.08;100.00
11001;BME280;5553;48.506;8.870;2023-02-21T04:18:24;96892.13;;;0.09;100.00
11001;BME280;5553;48.506;8.870;2023-02-21T04:20:52;96895.88;;;0.05;100.00
11001;BME280;5553;48.506;8.870;2023-02-21T04:23:21;96894.72;;;0.20;100.00
11001;BME280;5553;48.506;8.870;2023-02-21T04:25:49;96899.44;;;0.04;100.00
11001;BME280;5553;48.506;8.870;2023-02-21T04:28:18;96894.84;;;0.30;100.00
11001;BME280;5553;48.506;8.870;2023-02-21T04:30:49;96894.50;;;0.34;100.00
11001;BME280;5553;48.506;8.870;2023-02-21T04:33:17;96890.72;;;0.38;100.00
11001;BME280;5553;48.506;8.870;2023-02-21T04:35:45;96892.81;;;0.33;100.00
11001;BME280;5553;48.506;8.870;2023-02-21T04:38:14;96887.50;;;0.68;100.00
11001;BME280;5553;48.506;8.870;2023-02-21T04:40:43;96890.09;;;0.68;100.00
11001;BME280;5553;48.506;8.870;2023-02-21T04:43:11;96874.91;;;0.85;100.00
11001;BME280;5553;48.506;8.870;2023-02-21T04:45:39;96874.00;;;0.86;100.00
11001;BME280;5553;48.506;8.870;2023-02-21T04:48:10;96877.31;;;0.77;100.00
11001;BME280;5553;48.506;8.870;2023-02-21T04:50:38;96868.94;;;0.73;100.00
11001;BME280;5553;48.506;8.870;2023-02-21T04:53:06;96863.50;;;1.08;100.00
11001;BME280;5553;48.506;8.870;2023-02-21T04:55:35;96865.44;;;0.95;100.00
11001;BME280;5553;48.506;8.870;2023-02-21T04:58:03;96860.44;;;0.82;100.00
11001;BME280;5553;48.506;8.870;2023-02-21T05:00:32;96861.88;;;0.64;100.00
11001;BME280;5553;48.506;8.870;2023-02-21T05:03:00;96851.75;;;0.50;100.00
11001;BME280;5553;48.506;8.870;2023-02-21T05:05:31;96852.25;;;0.32;100.00
11001;BME280;5553;48.506;8.870;2023-02-21T05:07:59;96862.16;;;0.38;100.00
11001;BME280;5553;48.506;8.870;2023-02-21T05:10:27;96861.19;;;0.51;100.00
11001;BME280;5553;48.506;8.870;2023-02-21T05:12:56;96858.84;;;0.36;100.00
11001;BME280;5553;48.506;8.870;2023-02-21T05:15:24;96853.88;;;0.33;100.00
11001;BME280;5553;48.506;8.870;2023-02-21T05:17:52;96847.66;;;0.02;100.00
11001;BME280;5553;48.506;8.870;2023-02-21T05:20:20;96856.97;;;0.05;100.00
11001;BME280;5553;48.506;8.870;2023-02-21T05:22:51;96857.31;;;0.45;100.00
11001;BME280;5553;48.506;8.870;2023-02-21T05:25:21;96858.84;;;0.36;100.00
11001;BME280;5553;48.506;8.870;2023-02-21T05:27:51;96851.41;;;0.32;100.00
11001;BME280;5553;48.506;8.870;2023-02-21T05:30:21;96855.31;;;0.26;100.00
11001;BME280;5553;48.506;8.870;2023-02-21T05:32:50;96850.38;;;0.34;100.00
11001;BME280;5553;48.506;8.870;2023-02-21T05:35:19;96857.78;;;0.39;100.00
11001;BME280;5553;48.506;8.870;2023-02-21T05:37:47;96854.25;;;0.06;100.00
11001;BME280;5553;48.506;8.870;2023-02-21T05:40:18;96859.56;;;0.05;100.00
11001;BME280;5553;48.506;8.870;2023-02-21T05:42:46;96875.59;;;-0.02;100.00
11001;BME280;5553;48.506;8.870;2023-02-21T05:45:15;96870.63;;;-0.05;100.00
11001;BME280;5553;48.506;8.870;2023-02-21T05:47:43;96877.25;;;-0.01;100.00
11001;BME280;5553;48.506;8.870;2023-02-21T05:50:11;96884.81;;;0.14;100.00
11001;BME280;5553;48.506;8.870;2023-02-21T05:52:40;96883.88;;;0.15;100.00
11001;BME280;5553;48.506;8.870;2023-02-21T05:58:22;96874.41;;;-0.09;100.00
11001;BME280;5553;48.506;8.870;2023-02-21T06:00:50;96877.44;;;-0.37;100.00
11001;BME280;5553;48.506;8.870;2023-02-21T06:03:18;96877.41;;;-0.49;100.00
11001;BME280;5553;48.506;8.870;2023-02-21T06:05:47;96878.47;;;-0.51;100.00
11001;BME280;5553;48.506;8.870;2023-02-21T06:08:15;96875.22;;;-0.31;100.00
11001;BME280;5553;48.506;8.870;2023-02-21T06:10:43;96877.59;;;-0.16;100.00
11001;BME280;5553;48.506;8.870;2023-02-21T06:13:11;96872.88;;;0.22;100.00
11001;BME280;5553;48.506;8.870;2023-02-21T06:15:43;96865.94;;;0.12;100.00
11001;BME280;5553;48.506;8.870;2023-02-21T06:18:11;96865.13;;;0.11;100.00
11001;BME280;5553;48.506;8.870;2023-02-21T06:20:40;96868.91;;;0.07;100.00
11001;BME280;5553;48.506;8.870;2023-02-21T06:23:08;96863.22;;;-0.20;100.00
11001;BME280;5553;48.506;8.870;2023-02-21T06:25:36;96864.72;;;-0.29;100.00
11001;BME280;5553;48.506;8.870;2023-02-21T06:28:04;96863.00;;;-0.64;100.00
11001;BME280;5553;48.506;8.870;2023-02-21T06:30:33;96865.75;;;-0.43;100.00
11001;BME280;5553;48.506;8.870;2023-02-21T06:33:04;96869.00;;;-0.06;100.00
11001;BME280;5553;48.506;8.870;2023-02-21T06:35:32;96864.84;;;-0.19;100.00
11001;BME280;5553;48.506;8.870;2023-02-21T06:38:00;96870.38;;;-0.24;100.00
11001;BME280;5553;48.506;8.870;2023-02-21T06:40:29;96870.72;;;-0.17;100.00
11001;BME280;5553;48.506;8.870;2023-02-21T06:42:57;96876.19;;;-0.20;100.00
11001;BME280;5553;48.506;8.870;2023-02-21T06:45:25;96876.63;;;-0.27;100.00
11001;BME280;5553;48.506;8.870;2023-02-21T06:47:54;96872.28;;;-0.26;100.00
11001;BME280;5553;48.506;8.870;2023-02-21T06:50:24;96874.75;;;-0.25;100.00
11001;BME280;5553;48.506;8.870;2023-02-21T06:52:53;96877.25;;;-0.12;100.00
11001;BME280;5553;48.506;8.870;2023-02-21T06:55:22;96880.66;;;-0.11;100.00
11001;BME280;5553;48.506;8.870;2023-02-21T06:57:50;96892.56;;;0.03;100.00
11001;BME280;5553;48.506;8.870;2023-02-21T07:00:18;96875.72;;;0.19;100.00
11001;BME280;5553;48.506;8.870;2023-02-21T07:02:47;96882.91;;;0.16;100.00
11001;BME280;5553;48.506;8.870;2023-02-21T07:05:15;96884.56;;;0.28;100.00
11001;BME280;5553;48.506;8.870;2023-02-21T07:07:46;96871.22;;;0.44;100.00
11001;BME280;5553;48.506;8.870;2023-02-21T07:10:14;96868.38;;;0.58;100.00
11001;BME280;5553;48.506;8.870;2023-02-21T07:19:04;96859.88;;;1.32;100.00
11001;BME280;5553;48.506;8.870;2023-02-21T07:21:32;96852.84;;;1.64;100.00
11001;BME280;5553;48.506;8.870;2023-02-21T07:24:03;96842.88;;;1.70;100.00
11001;BME280;5553;48.506;8.870;2023-02-21T07:26:32;96834.25;;;1.69;100.00
11001;BME280;5553;48.506;8.870;2023-02-21T07:29:01;96831.25;;;1.74;100.00
11001;BME280;5553;48.506;8.870;2023-02-21T07:31:29;96847.16;;;2.01;100.00
11001;BME280;5553;48.506;8.870;2023-02-21T07:33:58;96839.59;;;2.29;100.00
11001;BME280;5553;48.506;8.870;2023-02-21T07:36:26;96836.41;;;2.66;100.00
11001;BME280;5553;48.506;8.870;2023-02-21T07:38:54;96831.06;;;2.77;100.00
11001;BME280;5553;48.506;8.870;2023-02-21T07:41:25;96814.19;;;2.61;100.00
11001;BME280;5553;48.506;8.870;2023-02-21T07:43:53;96818.47;;;3.11;100.00
11001;BME280;5553;48.506;8.870;2023-02-21T07:46:25;96811.16;;;3.63;100.00
11001;BME280;5553;48.506;8.870;2023-02-21T07:48:54;96799.19;;;3.70;100.00
11001;BME280;5553;48.506;8.870;2023-02-21T07:51:26;96809.00;;;3.96;100.00
11001;BME280;5553;48.506;8.870;2023-02-21T07:53:55;96809.09;;;4.41;100.00
11001;BME280;5553;48.506;8.870;2023-02-21T07:56:26;96800.72;;;5.01;100.00
11001;BME280;5553;48.506;8.870;2023-02-21T07:58:54;96791.50;;;5.15;100.00
11001;BME280;5553;48.506;8.870;2023-02-21T08:01:24;96786.09;;;5.78;99.35
11001;BME280;5553;48.506;8.870;2023-02-21T08:03:53;96788.00;;;5.94;97.81
11001;BME280;5553;48.506;8.870;2023-02-21T08:06:21;96770.59;;;5.85;96.03
11001;BME280;5553;48.506;8.870;2023-02-21T08:08:49;96758.81;;;5.89;93.57
11001;BME280;5553;48.506;8.870;2023-02-21T08:11:18;96761.09;;;6.10;92.63
11001;BME280;5553;48.506;8.870;2023-02-21T08:13:49;96764.00;;;5.81;92.68
11001;BME280;5553;48.506;8.870;2023-02-21T08:16:17;96765.81;;;5.80;92.75
11001;BME280;5553;48.506;8.870;2023-02-21T08:18:46;96773.81;;;5.79;93.00
11001;BME280;5553;48.506;8.870;2023-02-21T08:21:15;96776.69;;;6.78;90.42
11001;BME280;5553;48.506;8.870;2023-02-21T08:23:44;96766.59;;;6.33;88.71
11001;BME280;5553;48.506;8.870;2023-02-21T08:26:12;96744.06;;;6.73;86.21
11001;BME280;5553;48.506;8.870;2023-02-21T08:28:40;96748.06;;;8.37;82.21
11001;BME280;5553;48.506;8.870;2023-02-21T08:31:11;96758.56;;;8.06;83.27
11001;BME280;5553;48.506;8.870;2023-02-21T08:33:39;96743.38;;;8.64;81.00
11001;BME280;5553;48.506;8.870;2023-02-21T08:36:07;96722.59;;;7.34;80.24
11001;BME280;5553;48.506;8.870;2023-02-21T08:38:36;96746.41;;;7.33;81.52
11001;BME280;5553;48.506;8.870;2023-02-21T08:41:04;96748.50;;;6.97;82.76
11001;BME280;5553;48.506;8.870;2023-02-21T08:43:35;96752.28;;;7.02;83.16
11001;BME280;5553;48.506;8.870;2023-02-21T08:46:03;96767.88;;;7.36;84.40
11001;BME280;5553;48.506;8.870;2023-02-21T08:48:36;96755.88;;;7.50;82.71
11001;BME280;5553;48.506;8.870;2023-02-21T08:51:04;96733.88;;;8.15;79.43
11001;BME280;5553;48.506;8.870;2023-02-21T08:53:32;96740.59;;;9.64;77.29
11001;BME280;5553;48.506;8.870;2023-02-21T08:56:01;96728.56;;;10.43;74.39
11001;BME280;5553;48.506;8.870;2023-02-21T08:58:29;96711.84;;;9.92;71.41
11001;BME280;5553;48.506;8.870;2023-02-21T09:00:57;96703.31;;;10.56;69.33
11001;BME280;5553;48.506;8.870;2023-02-21T09:03:25;96695.47;;;9.96;69.00
11001;BME280;5553;48.506;8.870;2023-02-21T09:05:56;96716.41;;;11.07;68.92
11001;BME280;5553;48.506;8.870;2023-02-21T09:08:25;96684.22;;;11.74;65.08
11001;BME280;5553;48.506;8.870;2023-02-21T09:10:55;96648.34;;;10.23;64.53
11001;BME280;5553;48.506;8.870;2023-02-21T09:13:24;96693.78;;;11.19;65.27
11001;BME280;5553;48.506;8.870;2023-02-21T09:15:53;96686.25;;;12.07;63.41
11001;BME280;5553;48.506;8.870;2023-02-21T09:18:22;96640.59;;;11.01;61.40
11001;BME280;5553;48.506;8.870;2023-02-21T09:20:50;96701.19;;;12.28;63.30
11001;BME280;5553;48.506;8.870;2023-02-21T09:23:26;96674.56;;;11.60;62.01
11001;BME280;5553;48.506;8.870;2023-02-21T09:25:54;96684.66;;;12.19;61.24
11001;BME280;5553;48.506;8.870;2023-02-21T09:28:23;96654.59;;;11.85;59.71
11001;BME280;5553;48.506;8.870;2023-02-21T09:30:53;96664.34;;;13.34;58.46
11001;BME280;5553;48.506;8.870;2023-02-21T09:33:21;96633.63;;;12.25;57.77
11001;BME280;5553;48.506;8.870;2023-02-21T09:35:50;96674.66;;;14.47;56.34
11001;BME280;5553;48.506;8.870;2023-02-21T09:38:24;96650.56;;;13.97;55.62
11001;BME280;5553;48.506;8.870;2023-02-21T09:40:57;96643.94;;;13.61;55.47
11001;BME280;5553;48.506;8.870;2023-02-21T09:43:31;96656.84;;;14.61;54.25
11001;BME280;5553;48.506;8.870;2023-02-21T09:46:03;96667.25;;;14.62;55.18
11001;BME280;5553;48.506;8.870;2023-02-21T09:48:32;96625.03;;;14.09;53.33
11001;BME280;5553;48.506;8.870;2023-02-21T09:51:03;96635.75;;;13.69;54.21
11001;BME280;5553;48.506;8.870;2023-02-21T09:53:37;96639.94;;;15.12;52.49
11001;BME280;5553;48.506;8.870;2023-02-21T09:56:10;96664.53;;;15.76;52.58
11001;BME280;5553;48.506;8.870;2023-02-21T09:58:42;96642.53;;;16.05;50.22
11001;BME280;5553;48.506;8.870;2023-02-21T10:01:21;96618.56;;;15.50;49.55
11001;BME280;5553;48.506;8.870;2023-02-21T10:04:00;96623.88;;;14.75;51.55
11001;BME280;5553;48.506;8.870;2023-02-21T10:06:38;96646.75;;;16.13;50.11
11001;BME280;5553;48.506;8.870;2023-02-21T10:09:20;96666.22;;;16.62;50.85
11001;BME280;5553;48.506;8.870;2023-02-21T10:12:04;96632.16;;;16.94;48.05
11001;BME280;5553;48.506;8.870;2023-02-21T10:25:25;96624.09;;;17.83;46.08
11001;BME280;5553;48.506;8.870;2023-02-21T10:52:21;96584.22;;;17.29;44.17
11001;BME280;5553;48.506;8.870;2023-02-21T10:55:00;96595.75;;;18.34;43.51
11001;BME280;5553;48.506;8.870;2023-02-21T10:58:17;96591.78;;;18.08;44.19
11001;BME280;5553;48.506;8.870;2023-02-21T11:03:21;96551.13;;;17.89;42.21
11001;BME280;5553;48.506;8.870;2023-02-21T11:05:53;96572.56;;;19.31;40.89
11001;BME280;5553;48.506;8.870;2023-02-21T11:08:36;96598.81;;;20.82;39.78
11001;BME280;5553;48.506;8.870;2023-02-21T11:11:05;96575.41;;;19.80;40.43
11001;BME280;5553;48.506;8.870;2023-02-21T11:13:35;96554.38;;;20.10;38.95
11001;BME280;5553;48.506;8.870;2023-02-21T11:16:10;96552.53;;;20.16;39.10
11001;BME280;5553;48.506;8.870;2023-02-21T11:18:39;96540.44;;;19.86;39.11
11001;BME280;5553;48.506;8.870;2023-02-21T11:21:11;96510.28;;;20.77;36.36
11001;BME280;5553;48.506;8.870;2023-02-21T11:23:52;96493.56;;;19.84;37.09
11001;BME280;5553;48.506;8.870;2023-02-21T11:26:24;96473.88;;;18.28;39.82
11001;BME280;5553;48.506;8.870;2023-02-21T11:29:06;96504.25;;;20.60;36.35
11001;BME280;5553;48.506;8.870;2023-02-21T11:31:36;96496.59;;;18.14;41.30
11001;BME280;5553;48.506;8.870;2023-02-21T11:34:06;96502.72;;;19.10;38.94
11001;BME280;5553;48.506;8.870;2023-02-21T11:36:37;96473.69;;;17.61;40.78
11001;BME280;5553;48.506;8.870;2023-02-21T11:39:15;96496.56;;;18.59;40.45
11001;BME280;5553;48.506;8.870;2023-02-21T11:41:47;96514.91;;;19.62;39.11
11001;BME280;5553;48.506;8.870;2023-02-21T11:44:24;96489.50;;;20.95;35.97
11001;BME280;5553;48.506;8.870;2023-02-21T11:47:00;96443.31;;;20.18;34.73
11001;BME280;5553;48.506;8.870;2023-02-21T11:49:36;96467.56;;;21.45;33.90
11001;BME280;5553;48.506;8.870;2023-02-21T11:52:09;96434.84;;;20.96;33.47
11001;BME280;5553;48.506;8.870;2023-02-21T11:54:42;96444.84;;;21.68;33.12
11001;BME280;5553;48.506;8.870;2023-02-21T11:57:17;96438.53;;;20.90;33.96
11001;BME280;5553;48.506;8.870;2023-02-21T11:59:52;96466.91;;;21.86;34.07
11001;BME280;5553;48.506;8.870;2023-02-21T12:02:47;96415.38;;;21.94;31.73
11001;BME280;5553;48.506;8.870;2023-02-21T12:05:44;96395.53;;;20.69;33.40
11001;BME280;5553;48.506;8.870;2023-02-21T12:08:27;96448.59;;;21.67;34.68
11001;BME280;5553;48.506;8.870;2023-02-21T12:11:14;96449.66;;;21.61;35.16
11001;BME280;5553;48.506;8.870;2023-02-21T12:13:50;96412.19;;;20.81;34.66
11001;BME280;5553;48.506;8.870;2023-02-21T12:16:29;96407.81;;;21.75;32.99
11001;BME280;5553;48.506;8.870;2023-02-21T12:19:14;96379.22;;;21.34;32.78
11001;BME280;5553;48.506;8.870;2023-02-21T12:21:57;96370.47;;;21.59;31.92
11001;BME280;5553;48.506;8.870;2023-02-21T12:24:49;96406.03;;;22.42;32.18
11001;BME280;5553;48.506;8.870;2023-02-21T12:27:30;96424.28;;;23.82;31.00
11001;BME280;5553;48.506;8.870;2023-02-21T12:30:09;96315.13;;;20.69;31.76
11001;BME280;5553;48.506;8.870;2023-02-21T12:32:49;96388.44;;;21.63;33.62
11001;BME280;5553;48.506;8.870;2023-02-21T12:35:42;96377.78;;;21.89;32.58
11001;BME280;5553;48.506;8.870;2023-02-21T12:38:22;96371.03;;;21.76;32.92
11001;BME280;5553;48.506;8.870;2023-02-21T12:41:00;96369.13;;;21.51;33.06
11001;BME280;5553;48.506;8.870;2023-02-21T12:43:44;96382.66;;;22.58;32.51
11001;BME280;5553;48.506;8.870;2023-02-21T12:46:20;96353.63;;;22.09;32.22
11001;BME280;5553;48.506;8.870;2023-02-21T12:48:54;96307.03;;;21.32;31.72
11001;BME280;5553;48.506;8.870;2023-02-21T12:51:25;96348.03;;;22.26;31.69
11001;BME280;5553;48.506;8.870;2023-02-21T12:54:00;96376.34;;;23.19;31.48
11001;BME280;5553;48.506;8.870;2023-02-21T12:56:34;96387.41;;;23.12;32.43
11001;BME280;5553;48.506;8.870;2023-02-21T12:59:12;96341.63;;;23.17;30.35
11001;BME280;5553;48.506;8.870;2023-02-21T13:01:46;96353.06;;;22.74;31.79
11001;BME280;5553;48.506;8.870;2023-02-21T13:04:23;96266.34;;;20.72;31.85
11001;BME280;5553;48.506;8.870;2023-02-21T13:06:57;96302.03;;;21.61;31.36
11001;BME280;5553;48.506;8.870;2023-02-21T13:09:33;96263.63;;;20.67;31.91
11001;BME280;5553;48.506;8.870;2023-02-21T13:12:05;96333.69;;;22.82;31.30
11001;BME280;5553;48.506;8.870;2023-02-21T13:14:40;96307.41;;;21.76;32.56
11001;BME280;5553;48.506;8.870;2023-02-21T13:17:11;96264.31;;;21.05;32.03
11001;BME280;5553;48.506;8.870;2023-02-21T13:19:43;96282.97;;;21.52;32.17
11001;BME280;5553;48.506;8.870;2023-02-21T13:22:28;96272.69;;;21.24;32.50
11001;BME280;5553;48.506;8.870;2023-02-21T13:25:20;96263.31;;;21.32;32.40
11001;BME280;5553;48.506;8.870;2023-02-21T13:27:56;96290.50;;;21.91;32.37
11001;BME280;5553;48.506;8.870;2023-02-21T13:30:39;96270.28;;;21.27;32.64
11001;BME280;5553;48.506;8.870;2023-02-21T13:33:23;96227.78;;;20.83;32.39
11001;BME280;5553;48.506;8.870;2023-02-21T13:35:55;96264.19;;;21.52;32.44
11001;BME280;5553;48.506;8.870;2023-02-21T13:38:26;96242.63;;;21.17;31.92
11001;BME280;5553;48.506;8.870;2023-02-21T13:41:05;96262.28;;;21.53;32.74
11001;BME280;5553;48.506;8.870;2023-02-21T13:43:36;96250.78;;;21.58;32.35
11001;BME280;5553;48.506;8.870;2023-02-21T13:49:41;96224.06;;;20.90;33.03
11001;BME280;5553;48.506;8.870;2023-02-21T13:52:34;96211.41;;;20.75;32.76
11001;BME280;5553;48.506;8.870;2023-02-21T13:55:22;96223.44;;;20.62;33.07
11001;BME280;5553;48.506;8.870;2023-02-21T13:58:29;96199.75;;;20.49;33.00
11001;BME280;5553;48.506;8.870;2023-02-21T14:01:22;96212.22;;;20.75;33.35
11001;BME280;5553;48.506;8.870;2023-02-21T14:03:51;96189.59;;;20.51;33.13
11001;BME280;5553;48.506;8.870;2023-02-21T14:06:31;96201.84;;;20.31;33.51
11001;BME280;5553;48.506;8.870;2023-02-21T14:09:12;96208.97;;;20.68;33.96
11001;BME280;5553;48.506;8.870;2023-02-21T14:11:47;96169.94;;;19.77;33.57
11001;BME280;5553;48.506;8.870;2023-02-21T14:14:25;96202.28;;;20.18;34.21
11001;BME280;5553;48.506;8.870;2023-02-21T14:16:58;96212.31;;;20.38;34.52
11001;BME280;5553;48.506;8.870;2023-02-21T14:19:32;96230.22;;;20.90;34.50
11001;BME280;5553;48.506;8.870;2023-02-21T14:22:12;96204.19;;;20.80;33.48
11001;BME280;5553;48.506;8.870;2023-02-21T14:24:43;96181.66;;;19.71;35.20
11001;BME280;5553;48.506;8.870;2023-02-21T14:27:32;96176.56;;;20.12;33.58
11001;BME280;5553;48.506;8.870;2023-02-21T14:30:24;96167.25;;;19.77;34.01
11001;BME280;5553;48.506;8.870;2023-02-21T14:32:54;96202.16;;;20.45;34.47
11001;BME280;5553;48.506;8.870;2023-02-21T14:35:30;96167.44;;;20.13;33.55
11001;BME280;5553;48.506;8.870;2023-02-21T14:38:04;96197.13;;;20.54;34.77
11001;BME280;5553;48.506;8.870;2023-02-21T14:40:44;96178.00;;;19.18;36.58
11001;BME280;5553;48.506;8.870;2023-02-21T14:43:25;96218.38;;;20.18;36.57
11001;BME280;5553;48.506;8.870;2023-02-21T14:49:14;96200.28;;;19.93;36.60
11001;BME280;5553;48.506;8.870;2023-02-21T15:04:45;96179.31;;;19.48;36.92
11001;BME280;5553;48.506;8.870;2023-02-21T15:07:25;96218.59;;;20.59;36.46
11001;BME280;5553;48.506;8.870;2023-02-21T15:13:25;96196.44;;;20.26;36.52
11001;BME280;5553;48.506;8.870;2023-02-21T15:15:57;96202.97;;;20.46;36.26
11001;BME280;5553;48.506;8.870;2023-02-21T15:18:28;96191.88;;;20.27;36.62